sensor_id;sensor_type;location;lat;lon;timestamp;pressure;altitude;pressure_sealevel;temperature;humidity
20860;BME280;10590;48.154;11.514;2024-03-08T00:04:05;95567.25;;;0.73;87.63
20860;BME280;10590;48.154;11.514;2024-03-08T00:09:27;95566.56;;;0.46;88.31
20860;BME280;10590;48.154;11.514;2024-03-08T00:14:51;95568.97;;;0.52;87.31
20860;BME280;10590;48.154;11.514;2024-03-08T00:20:13;95575.25;;;0.51;87.14
20860;BME280;10590;48.154;11.514;2024-03-08T00:25:34;95555.06;;;0.52;87.25
20860;BME280;10590;48.154;11.514;2024-03-08T00:30:57;95562.31;;;0.40;87.56
20860;BME280;10590;48.154;11.514;2024-03-08T00:36:19;95555.50;;;0.39;88.06
20860;BME280;10590;48.154;11.514;2024-03-08T00:41:41;95554.59;;;0.65;86.67
20860;BME280;10590;48.154;11.514;2024-03-08T00:47:06;95540.31;;;0.46;88.31
20860;BME280;10590;48.154;11.514;2024-03-08T00:52:28;95526.31;;;0.30;88.08
20860;BME280;10590;48.154;11.514;2024-03-08T00:57:49;95530.03;;;0.39;88.53
20860;BME280;10590;48.154;11.514;2024-03-08T01:03:12;95526.88;;;0.37;88.50
20860;BME280;10590;48.154;11.514;2024-03-08T01:08:34;95505.13;;;0.42;87.42
20860;BME280;10590;48.154;11.514;2024-03-08T01:13:58;95515.00;;;0.24;89.06
20860;BME280;10590;48.154;11.514;2024-03-08T01:19:21;95514.75;;;0.26;88.94
20860;BME280;10590;48.154;11.514;2024-03-08T01:24:44;95503.44;;;0.25;89.11
20860;BME280;10590;48.154;11.514;2024-03-08T01:30:06;95502.13;;;0.23;88.56
20860;BME280;10590;48.154;11.514;2024-03-08T01:35:31;95475.56;;;0.14;88.99
20860;BME280;10590;48.154;11.514;2024-03-08T01:40:52;95479.78;;;0.15;90.21
20860;BME280;10590;48.154;11.514;2024-03-08T01:46:18;95462.41;;;0.09;90.62
20860;BME280;10590;48.154;11.514;2024-03-08T01:51:44;95472.13;;;0.09;90.30
20860;BME280;10590;48.154;11.514;2024-03-08T01:57:06;95459.38;;;-0.10;91.21
20860;BME280;10590;48.154;11.514;2024-03-08T02:02:28;95457.34;;;-0.03;91.35
20860;BME280;10590;48.154;11.514;2024-03-08T02:07:53;95444.53;;;0.01;91.24
20860;BME280;10590;48.154;11.514;2024-03-08T02:13:14;95437.31;;;-0.14;92.06
20860;BME280;10590;48.154;11.514;2024-03-08T02:18:36;95444.69;;;-0.11;92.07
20860;BME280;10590;48.154;11.514;2024-03-08T02:24:01;95437.41;;;-0.04;92.23
20860;BME280;10590;48.154;11.514;2024-03-08T02:29:23;95438.16;;;-0.08;92.75
20860;BME280;10590;48.154;11.514;2024-03-08T02:34:45;95423.69;;;-0.16;92.79
20860;BME280;10590;48.154;11.514;2024-03-08T02:40:09;95429.19;;;-0.17;92.69
20860;BME280;10590;48.154;11.514;2024-03-08T02:45:32;95430.28;;;-0.08;92.71
20860;BME280;10590;48.154;11.514;2024-03-08T02:50:55;95431.06;;;-0.08;93.16
20860;BME280;10590;48.154;11.514;2024-03-08T02:56:18;95414.69;;;-0.25;92.95
20860;BME280;10590;48.154;11.514;2024-03-08T03:01:42;95424.72;;;-0.17;93.65
20860;BME280;10590;48.154;11.514;2024-03-08T03:07:03;95413.19;;;-0.16;93.80
20860;BME280;10590;48.154;11.514;2024-03-08T03:12:27;95410.53;;;-0.21;93.60
20860;BME280;10590;48.154;11.514;2024-03-08T03:17:49;95406.88;;;-0.20;93.47
20860;BME280;10590;48.154;11.514;2024-03-08T03:23:11;95379.38;;;-0.54;94.71
20860;BME280;10590;48.154;11.514;2024-03-08T03:28:36;95406.78;;;-0.35;95.23
20860;BME280;10590;48.154;11.514;2024-03-08T03:33:59;95394.59;;;-0.51;95.64
20860;BME280;10590;48.154;11.514;2024-03-08T03:39:24;95398.84;;;-0.45;95.92
20860;BME280;10590;48.154;11.514;2024-03-08T03:44:48;95403.06;;;-0.39;95.34
20860;BME280;10590;48.154;11.514;2024-03-08T03:50:10;95401.19;;;-0.44;95.71
20860;BME280;10590;48.154;11.514;2024-03-08T03:55:32;95389.59;;;-0.53;96.76
20860;BME280;10590;48.154;11.514;2024-03-08T04:00:55;95387.03;;;-0.48;95.81
20860;BME280;10590;48.154;11.514;2024-03-08T04:06:16;95385.44;;;-0.49;96.19
20860;BME280;10590;48.154;11.514;2024-03-08T04:11:38;95389.28;;;-0.61;97.45
20860;BME280;10590;48.154;11.514;2024-03-08T04:17:02;95383.00;;;-0.60;95.77
20860;BME280;10590;48.154;11.514;2024-03-08T04:22:24;95383.41;;;-0.74;96.83
20860;BME280;10590;48.154;11.514;2024-03-08T04:27:45;95380.78;;;-0.74;96.79
20860;BME280;10590;48.154;11.514;2024-03-08T04:33:08;95372.56;;;-0.55;98.07
20860;BME280;10590;48.154;11.514;2024-03-08T04:38:30;95380.75;;;-0.79;97.57
20860;BME280;10590;48.154;11.514;2024-03-08T04:43:52;95371.41;;;-0.70;96.98
20860;BME280;10590;48.154;11.514;2024-03-08T04:49:15;95378.72;;;-0.72;98.17
20860;BME280;10590;48.154;11.514;2024-03-08T04:54:37;95369.78;;;-0.76;97.45
20860;BME280;10590;48.154;11.514;2024-03-08T04:59:59;95373.53;;;-0.67;97.37
20860;BME280;10590;48.154;11.514;2024-03-08T05:05:22;95372.75;;;-0.62;97.92
20860;BME280;10590;48.154;11.514;2024-03-08T05:10:43;95356.59;;;-0.86;98.15
20860;BME280;10590;48.154;11.514;2024-03-08T05:16:05;95358.34;;;-0.65;97.91
20860;BME280;10590;48.154;11.514;2024-03-08T05:21:29;95370.97;;;-0.56;97.02
20860;BME280;10590;48.154;11.514;2024-03-08T05:26:50;95365.88;;;-0.73;97.48
20860;BME280;10590;48.154;11.514;2024-03-08T05:32:12;95358.16;;;-0.53;97.19
20860;BME280;10590;48.154;11.514;2024-03-08T05:37:36;95339.88;;;-0.80;97.20
20860;BME280;10590;48.154;11.514;2024-03-08T05:42:57;95357.97;;;-0.78;98.29
20860;BME280;10590;48.154;11.514;2024-03-08T05:48:19;95350.56;;;-0.54;97.51
20860;BME280;10590;48.154;11.514;2024-03-08T05:53:44;95353.63;;;-0.62;96.41
20860;BME280;10590;48.154;11.514;2024-03-08T05:59:05;95340.84;;;-0.54;97.08
20860;BME280;10590;48.154;11.514;2024-03-08T06:04:27;95350.34;;;-0.48;96.58
20860;BME280;10590;48.154;11.514;2024-03-08T06:09:50;95345.44;;;-0.34;95.74
20860;BME280;10590;48.154;11.514;2024-03-08T06:15:12;95343.88;;;-0.30;95.54
20860;BME280;10590;48.154;11.514;2024-03-08T06:20:36;95345.66;;;-0.41;94.76
20860;BME280;10590;48.154;11.514;2024-03-08T06:25:59;95340.38;;;-0.46;94.66
20860;BME280;10590;48.154;11.514;2024-03-08T06:31:21;95349.47;;;-0.16;94.16
20860;BME280;10590;48.154;11.514;2024-03-08T06:36:43;95357.03;;;-0.25;93.08
20860;BME280;10590;48.154;11.514;2024-03-08T06:42:06;95350.78;;;-0.19;94.17
20860;BME280;10590;48.154;11.514;2024-03-08T06:47:29;95349.06;;;0.02;92.26
20860;BME280;10590;48.154;11.514;2024-03-08T06:52:51;95346.72;;;0.06;92.35
20860;BME280;10590;48.154;11.514;2024-03-08T06:58:15;95352.00;;;0.16;90.97
20860;BME280;10590;48.154;11.514;2024-03-08T07:03:37;95349.94;;;0.23;90.98
20860;BME280;10590;48.154;11.514;2024-03-08T07:09:04;95348.84;;;0.14;90.05
20860;BME280;10590;48.154;11.514;2024-03-08T07:14:27;95332.75;;;0.68;87.53
20860;BME280;10590;48.154;11.514;2024-03-08T07:19:49;95343.09;;;0.17;89.33
20860;BME280;10590;48.154;11.514;2024-03-08T07:25:11;95331.00;;;0.06;90.42
20860;BME280;10590;48.154;11.514;2024-03-08T07:30:41;95341.94;;;-0.03;90.62
20860;BME280;10590;48.154;11.514;2024-03-08T07:36:28;95334.28;;;0.43;88.68
20860;BME280;10590;48.154;11.514;2024-03-08T07:41:50;95325.56;;;0.27;89.40
20860;BME280;10590;48.154;11.514;2024-03-08T07:47:14;95338.28;;;0.71;87.46
20860;BME280;10590;48.154;11.514;2024-03-08T07:58:21;95304.91;;;0.61;86.61
20860;BME280;10590;48.154;11.514;2024-03-08T08:03:45;95307.53;;;2.97;76.97
20860;BME280;10590;48.154;11.514;2024-03-08T08:09:08;95307.78;;;2.62;76.13
20860;BME280;10590;48.154;11.514;2024-03-08T08:14:34;95295.84;;;3.42;72.79
20860;BME280;10590;48.154;11.514;2024-03-08T08:20:00;95296.38;;;4.21;71.12
20860;BME280;10590;48.154;11.514;2024-03-08T08:25:25;95295.69;;;4.10;72.09
20860;BME280;10590;48.154;11.514;2024-03-08T08:30:47;95280.56;;;5.94;62.28
20860;BME280;10590;48.154;11.514;2024-03-08T08:36:10;95292.44;;;4.42;69.28
20860;BME280;10590;48.154;11.514;2024-03-08T08:41:32;95275.47;;;5.19;62.08
20860;BME280;10590;48.154;11.514;2024-03-08T08:46:53;95270.81;;;5.75;62.63
20860;BME280;10590;48.154;11.514;2024-03-08T08:52:17;95263.22;;;6.29;62.24
20860;BME280;10590;48.154;11.514;2024-03-08T08:57:39;95257.19;;;7.23;57.92
20860;BME280;10590;48.154;11.514;2024-03-08T09:03:00;95261.22;;;8.13;57.32
20860;BME280;10590;48.154;11.514;2024-03-08T09:08:24;95244.09;;;9.75;51.72
20860;BME280;10590;48.154;11.514;2024-03-08T09:13:46;95232.38;;;10.05;49.65
20860;BME280;10590;48.154;11.514;2024-03-08T09:19:09;95242.78;;;7.46;57.29
20860;BME280;10590;48.154;11.514;2024-03-08T09:24:33;95220.22;;;7.57;55.19
20860;BME280;10590;48.154;11.514;2024-03-08T09:29:54;95220.09;;;9.02;54.46
20860;BME280;10590;48.154;11.514;2024-03-08T09:35:16;95225.84;;;8.52;54.41
20860;BME280;10590;48.154;11.514;2024-03-08T09:40:41;95215.59;;;7.72;56.27
20860;BME280;10590;48.154;11.514;2024-03-08T09:46:07;95219.72;;;7.86;57.13
20860;BME280;10590;48.154;11.514;2024-03-08T09:51:29;95215.16;;;7.16;58.63
20860;BME280;10590;48.154;11.514;2024-03-08T09:56:57;95201.84;;;7.39;58.16
20860;BME280;10590;48.154;11.514;2024-03-08T10:02:24;95192.25;;;7.91;54.98
20860;BME280;10590;48.154;11.514;2024-03-08T10:07:49;95178.03;;;7.95;56.00
20860;BME280;10590;48.154;11.514;2024-03-08T10:13:15;95186.41;;;9.79;51.64
20860;BME280;10590;48.154;11.514;2024-03-08T10:18:43;95191.94;;;7.92;55.62
20860;BME280;10590;48.154;11.514;2024-03-08T10:24:10;95192.56;;;7.27;59.69
20860;BME280;10590;48.154;11.514;2024-03-08T10:29:36;95151.81;;;8.11;54.76
20860;BME280;10590;48.154;11.514;2024-03-08T10:35:07;95180.34;;;6.51;59.62
20860;BME280;10590;48.154;11.514;2024-03-08T10:40:33;95170.78;;;7.79;57.42
20860;BME280;10590;48.154;11.514;2024-03-08T10:46:16;95173.06;;;6.56;58.81
20860;BME280;10590;48.154;11.514;2024-03-08T10:52:11;95158.28;;;9.52;51.11
20860;BME280;10590;48.154;11.514;2024-03-08T10:57:42;95150.22;;;9.78;51.09
20860;BME280;10590;48.154;11.514;2024-03-08T11:09:31;95133.69;;;9.55;50.00
20860;BME280;10590;48.154;11.514;2024-03-08T11:14:58;95124.19;;;10.55;49.70
20860;BME280;10590;48.154;11.514;2024-03-08T11:20:29;95110.59;;;11.83;48.37
20860;BME280;10590;48.154;11.514;2024-03-08T11:26:01;95111.88;;;10.20;50.61
20860;BME280;10590;48.154;11.514;2024-03-08T11:31:33;95092.25;;;10.46;49.91
20860;BME280;10590;48.154;11.514;2024-03-08T11:36:57;95095.03;;;10.70;49.44
20860;BME280;10590;48.154;11.514;2024-03-08T11:42:19;95086.50;;;10.14;50.97
20860;BME280;10590;48.154;11.514;2024-03-08T11:47:42;95097.59;;;10.46;51.29
20860;BME280;10590;48.154;11.514;2024-03-08T11:53:08;95089.63;;;11.36;48.93
20860;BME280;10590;48.154;11.514;2024-03-08T11:58:30;95082.59;;;10.33;50.01
20860;BME280;10590;48.154;11.514;2024-03-08T12:03:53;95074.97;;;10.97;48.89
20860;BME280;10590;48.154;11.514;2024-03-08T12:09:16;95063.88;;;9.41;52.99
20860;BME280;10590;48.154;11.514;2024-03-08T12:14:43;95068.38;;;10.49;50.79
20860;BME280;10590;48.154;11.514;2024-03-08T12:20:14;95064.72;;;11.81;48.38
20860;BME280;10590;48.154;11.514;2024-03-08T12:25:38;95053.75;;;12.23;46.67
20860;BME280;10590;48.154;11.514;2024-03-08T12:31:06;95043.16;;;9.76;51.85
20860;BME280;10590;48.154;11.514;2024-03-08T12:37:10;95027.47;;;9.53;52.20
20860;BME280;10590;48.154;11.514;2024-03-08T12:42:52;95018.03;;;10.48;48.89
20860;BME280;10590;48.154;11.514;2024-03-08T12:54:16;95022.97;;;10.16;50.42
20860;BME280;10590;48.154;11.514;2024-03-08T12:59:39;95005.16;;;10.62;49.91
20860;BME280;10590;48.154;11.514;2024-03-08T13:05:11;94983.28;;;10.69;49.36
20860;BME280;10590;48.154;11.514;2024-03-08T13:10:34;95000.47;;;11.04;48.84
20860;BME280;10590;48.154;11.514;2024-03-08T13:15:57;94988.09;;;11.00;48.89
20860;BME280;10590;48.154;11.514;2024-03-08T13:21:24;94995.31;;;10.87;49.50
20860;BME280;10590;48.154;11.514;2024-03-08T13:26:48;94986.69;;;10.24;50.23
20860;BME280;10590;48.154;11.514;2024-03-08T13:32:16;94971.16;;;10.71;49.47
20860;BME280;10590;48.154;11.514;2024-03-08T13:37:44;94930.06;;;10.39;47.93
20860;BME280;10590;48.154;11.514;2024-03-08T13:43:09;94958.28;;;10.85;47.98
20860;BME280;10590;48.154;11.514;2024-03-08T13:48:37;94963.53;;;10.94;48.42
20860;BME280;10590;48.154;11.514;2024-03-08T13:53:59;94953.81;;;10.65;49.14
20860;BME280;10590;48.154;11.514;2024-03-08T13:59:21;94937.19;;;10.14;49.15
20860;BME280;10590;48.154;11.514;2024-03-08T14:04:45;94939.16;;;10.05;49.67
20860;BME280;10590;48.154;11.514;2024-03-08T14:10:10;94902.00;;;10.42;49.21
20860;BME280;10590;48.154;11.514;2024-03-08T14:15:33;94920.03;;;10.24;48.31
20860;BME280;10590;48.154;11.514;2024-03-08T14:20:57;94916.13;;;8.97;51.55
20860;BME280;10590;48.154;11.514;2024-03-08T14:26:19;94919.84;;;10.08;49.93
20860;BME280;10590;48.154;11.514;2024-03-08T14:31:42;94906.91;;;11.01;47.52
20860;BME280;10590;48.154;11.514;2024-03-08T14:37:05;94886.50;;;10.02;49.09
20860;BME280;10590;48.154;11.514;2024-03-08T14:42:31;94884.91;;;9.89;48.98
20860;BME280;10590;48.154;11.514;2024-03-08T14:47:53;94891.88;;;8.98;51.22
20860;BME280;10590;48.154;11.514;2024-03-08T14:53:16;94892.28;;;9.09;51.50
20860;BME280;10590;48.154;11.514;2024-03-08T14:58:38;94898.75;;;8.99;51.56
20860;BME280;10590;48.154;11.514;2024-03-08T15:04:00;94878.19;;;9.08;52.72
20860;BME280;10590;48.154;11.514;2024-03-08T15:09:31;94875.41;;;9.46;52.08
20860;BME280;10590;48.154;11.514;2024-03-08T15:14:59;94862.91;;;8.76;52.54
20860;BME280;10590;48.154;11.514;2024-03-08T15:20:21;94868.09;;;8.63;52.95
20860;BME280;10590;48.154;11.514;2024-03-08T15:25:47;94874.00;;;8.40;53.87
20860;BME280;10590;48.154;11.514;2024-03-08T15:31:10;94863.47;;;8.52;52.47
20860;BME280;10590;48.154;11.514;2024-03-08T15:36:32;94853.03;;;8.29;53.64
20860;BME280;10590;48.154;11.514;2024-03-08T15:42:05;94857.59;;;8.38;53.48
20860;BME280;10590;48.154;11.514;2024-03-08T15:47:33;94849.78;;;8.24;53.29
20860;BME280;10590;48.154;11.514;2024-03-08T15:52:55;94847.47;;;8.14;53.60
20860;BME280;10590;48.154;11.514;2024-03-08T15:58:18;94847.34;;;8.10;53.87
20860;BME280;10590;48.154;11.514;2024-03-08T16:03:40;94854.91;;;7.91;53.74
20860;BME280;10590;48.154;11.514;2024-03-08T16:09:02;94840.19;;;8.02;53.69
20860;BME280;10590;48.154;11.514;2024-03-08T16:14:28;94842.09;;;7.84;54.58
20860;BME280;10590;48.154;11.514;2024-03-08T16:19:50;94822.72;;;7.84;54.83
20860;BME280;10590;48.154;11.514;2024-03-08T16:25:16;94835.88;;;7.54;55.99
20860;BME280;10590;48.154;11.514;2024-03-08T16:31:05;94811.53;;;7.44;56.84
20860;BME280;10590;48.154;11.514;2024-03-08T16:36:35;94806.88;;;7.32;57.23
20860;BME280;10590;48.154;11.514;2024-03-08T16:42:08;94806.88;;;7.06;58.44
20860;BME280;10590;48.154;11.514;2024-03-08T16:47:40;94806.88;;;7.06;58.96
20860;BME280;10590;48.154;11.514;2024-03-08T16:53:03;94823.28;;;7.08;59.52
20860;BME280;10590;48.154;11.514;2024-03-08T16:58:25;94811.09;;;7.07;59.79
20860;BME280;10590;48.154;11.514;2024-03-08T17:03:48;94803.72;;;6.87;60.75
20860;BME280;10590;48.154;11.514;2024-03-08T17:09:12;94778.63;;;6.76;61.02
20860;BME280;10590;48.154;11.514;2024-03-08T17:14:34;94790.47;;;6.69;61.77
20860;BME280;10590;48.154;11.514;2024-03-08T17:20:02;94782.31;;;6.49;62.91
20860;BME280;10590;48.154;11.514;2024-03-08T17:25:27;94802.91;;;6.52;63.92
20860;BME280;10590;48.154;11.514;2024-03-08T17:30:48;94791.09;;;6.66;64.05
20860;BME280;10590;48.154;11.514;2024-03-08T17:36:13;94766.72;;;6.38;64.57
20860;BME280;10590;48.154;11.514;2024-03-08T17:41:40;94765.31;;;6.32;65.14
20860;BME280;10590;48.154;11.514;2024-03-08T17:47:12;94771.50;;;6.19;66.62
20860;BME280;10590;48.154;11.514;2024-03-08T17:52:42;94793.16;;;6.21;67.24
20860;BME280;10590;48.154;11.514;2024-03-08T17:58:05;94746.78;;;5.93;67.86
20860;BME280;10590;48.154;11.514;2024-03-08T18:03:27;94778.59;;;6.01;68.27
20860;BME280;10590;48.154;11.514;2024-03-08T18:08:54;94775.84;;;5.84;70.02
20860;BME280;10590;48.154;11.514;2024-03-08T18:14:16;94774.38;;;5.69;70.11
20860;BME280;10590;48.154;11.514;2024-03-08T18:19:38;94764.31;;;5.80;70.78
20860;BME280;10590;48.154;11.514;2024-03-08T18:25:02;94761.63;;;5.71;71.05
20860;BME280;10590;48.154;11.514;2024-03-08T18:30:32;94754.47;;;5.41;72.49
20860;BME280;10590;48.154;11.514;2024-03-08T18:35:56;94744.25;;;5.48;72.19
20860;BME280;10590;48.154;11.514;2024-03-08T18:41:21;94745.13;;;5.35;73.00
20860;BME280;10590;48.154;11.514;2024-03-08T18:46:43;94739.66;;;5.31;73.28
20860;BME280;10590;48.154;11.514;2024-03-08T18:52:13;94735.41;;;5.22;73.50
20860;BME280;10590;48.154;11.514;2024-03-08T18:57:39;94723.97;;;5.12;73.60
20860;BME280;10590;48.154;11.514;2024-03-08T19:03:05;94691.53;;;4.76;74.32
20860;BME280;10590;48.154;11.514;2024-03-08T19:08:32;94693.81;;;4.69;74.88
20860;BME280;10590;48.154;11.514;2024-03-08T19:14:04;94710.75;;;4.90;74.46
20860;BME280;10590;48.154;11.514;2024-03-08T19:19:26;94704.50;;;4.86;74.84
20860;BME280;10590;48.154;11.514;2024-03-08T19:25:19;94685.66;;;4.57;75.58
20860;BME280;10590;48.154;11.514;2024-03-08T19:31:27;94689.59;;;4.45;76.19
20860;BME280;10590;48.154;11.514;2024-03-08T19:49:39;94673.34;;;4.16;76.78
20860;BME280;10590;48.154;11.514;2024-03-08T19:55:27;94678.75;;;4.33;76.72
20860;BME280;10590;48.154;11.514;2024-03-08T20:01:09;94681.19;;;4.43;76.17
20860;BME280;10590;48.154;11.514;2024-03-08T20:06:51;94682.69;;;4.22;77.54
20860;BME280;10590;48.154;11.514;2024-03-08T20:12:20;94689.97;;;4.03;78.15
20860;BME280;10590;48.154;11.514;2024-03-08T20:18:15;94651.72;;;3.78;77.90
20860;BME280;10590;48.154;11.514;2024-03-08T20:23:57;94663.41;;;3.99;77.57
20860;BME280;10590;48.154;11.514;2024-03-08T20:29:25;94688.91;;;4.04;77.84
20860;BME280;10590;48.154;11.514;2024-03-08T20:34:55;94667.03;;;3.90;77.72
20860;BME280;10590;48.154;11.514;2024-03-08T20:40:30;94677.69;;;3.98;77.87
20860;BME280;10590;48.154;11.514;2024-03-08T20:46:19;94652.41;;;3.56;78.31
20860;BME280;10590;48.154;11.514;2024-03-08T20:58:00;94644.97;;;3.44;79.66
20860;BME280;10590;48.154;11.514;2024-03-08T21:04:07;94656.41;;;3.81;78.68
20860;BME280;10590;48.154;11.514;2024-03-08T21:09:43;94655.34;;;3.68;79.28
20860;BME280;10590;48.154;11.514;2024-03-08T21:15:32;94633.97;;;3.56;79.09
20860;BME280;10590;48.154;11.514;2024-03-08T21:21:15;94622.16;;;3.54;78.82
20860;BME280;10590;48.154;11.514;2024-03-08T21:27:02;94639.13;;;3.34;79.82
20860;BME280;10590;48.154;11.514;2024-03-08T21:39:18;94594.13;;;3.16;80.27
20860;BME280;10590;48.154;11.514;2024-03-08T21:45:51;94618.31;;;3.18;80.40
20860;BME280;10590;48.154;11.514;2024-03-08T21:51:19;94618.41;;;3.13;80.50
20860;BME280;10590;48.154;11.514;2024-03-08T21:58:05;94628.38;;;3.30;79.98
20860;BME280;10590;48.154;11.514;2024-03-08T22:15:50;94601.91;;;2.94;81.46
20860;BME280;10590;48.154;11.514;2024-03-08T22:21:27;94593.81;;;2.91;80.92
20860;BME280;10590;48.154;11.514;2024-03-08T22:26:52;94577.41;;;2.80;80.79
20860;BME280;10590;48.154;11.514;2024-03-08T22:32:27;94597.69;;;2.79;82.00
20860;BME280;10590;48.154;11.514;2024-03-08T22:38:34;94593.31;;;2.75;81.50
20860;BME280;10590;48.154;11.514;2024-03-08T22:44:19;94570.56;;;2.65;81.96
20860;BME280;10590;48.154;11.514;2024-03-08T22:49:46;94570.97;;;2.72;80.73
20860;BME280;10590;48.154;11.514;2024-03-08T22:55:13;94574.59;;;2.90;80.92
20860;BME280;10590;48.154;11.514;2024-03-08T23:00:39;94597.72;;;2.93;81.30
20860;BME280;10590;48.154;11.514;2024-03-08T23:06:23;94561.84;;;2.51;82.12
20860;BME280;10590;48.154;11.514;2024-03-08T23:11:45;94579.34;;;2.74;81.91
20860;BME280;10590;48.154;11.514;2024-03-08T23:17:09;94594.88;;;2.43;82.98
20860;BME280;10590;48.154;11.514;2024-03-08T23:22:33;94597.69;;;2.79;81.79
20860;BME280;10590;48.154;11.514;2024-03-08T23:27:56;94588.06;;;2.88;80.69
20860;BME280;10590;48.154;11.514;2024-03-08T23:33:18;94595.56;;;2.81;81.30
20860;BME280;10590;48.154;11.514;2024-03-08T23:38:41;94586.31;;;2.51;82.56
20860;BME280;10590;48.154;11.514;2024-03-08T23:44:03;94585.22;;;2.85;81.22
20860;BME280;10590;48.154;11.514;2024-03-08T23:49:26;94582.88;;;2.83;80.80
20860;BME280;10590;48.154;11.514;2024-03-08T23:54:49;94593.81;;;2.77;81.49
